sensor_id;sensor_type;location;lat;lon;timestamp;temperature;humidity
69715;HTU21D;56981;53.532;49.398;2023-05-15T00:00:15;8.94;93.26
69715;HTU21D;56981;53.532;49.398;2023-05-15T00:02:41;8.92;92.42
69715;HTU21D;56981;53.532;49.398;2023-05-15T00:05:09;8.91;92.22
69715;HTU21D;56981;53.532;49.398;2023-05-15T00:07:37;8.88;92.78
69715;HTU21D;56981;53.532;49.398;2023-05-15T00:10:03;8.89;92.34
69715;HTU21D;56981;53.532;49.398;2023-05-15T00:12:30;8.88;92.08
69715;HTU21D;56981;53.532;49.398;2023-05-15T00:14:56;8.90;92.16
69715;HTU21D;56981;53.532;49.398;2023-05-15T00:17:22;8.91;92.28
69715;HTU21D;56981;53.532;49.398;2023-05-15T00:19:48;8.90;92.33
69715;HTU21D;56981;53.532;49.398;2023-05-15T00:22:14;8.97;95.56
69715;HTU21D;56981;53.532;49.398;2023-05-15T00:24:40;9.10;97.45
69715;HTU21D;56981;53.532;49.398;2023-05-15T00:27:06;9.21;98.17
69715;HTU21D;56981;53.532;49.398;2023-05-15T00:29:32;9.27;98.11
69715;HTU21D;56981;53.532;49.398;2023-05-15T00:31:58;9.30;97.60
69715;HTU21D;56981;53.532;49.398;2023-05-15T00:34:25;9.34;97.37
69715;HTU21D;56981;53.532;49.398;2023-05-15T00:36:51;9.35;97.40
69715;HTU21D;56981;53.532;49.398;2023-05-15T00:39:17;9.36;96.95
69715;HTU21D;56981;53.532;49.398;2023-05-15T00:41:44;9.38;96.84
69715;HTU21D;56981;53.532;49.398;2023-05-15T00:44:11;9.39;96.56
69715;HTU21D;56981;53.532;49.398;2023-05-15T00:46:38;9.46;96.38
69715;HTU21D;56981;53.532;49.398;2023-05-15T00:49:05;9.49;96.14
69715;HTU21D;56981;53.532;49.398;2023-05-15T00:51:31;9.54;95.72
69715;HTU21D;56981;53.532;49.398;2023-05-15T00:53:58;9.56;95.20
69715;HTU21D;56981;53.532;49.398;2023-05-15T00:56:24;9.60;94.91
69715;HTU21D;56981;53.532;49.398;2023-05-15T00:58:53;9.61;94.81
69715;HTU21D;56981;53.532;49.398;2023-05-15T01:01:20;9.62;94.78
69715;HTU21D;56981;53.532;49.398;2023-05-15T01:03:46;9.65;94.46
69715;HTU21D;56981;53.532;49.398;2023-05-15T01:06:12;9.67;94.43
69715;HTU21D;56981;53.532;49.398;2023-05-15T01:08:45;9.69;94.08
69715;HTU21D;56981;53.532;49.398;2023-05-15T01:11:13;9.83;94.21
69715;HTU21D;56981;53.532;49.398;2023-05-15T01:13:39;10.15;92.21
69715;HTU21D;56981;53.532;49.398;2023-05-15T01:16:07;10.67;91.23
69715;HTU21D;56981;53.532;49.398;2023-05-15T01:18:33;11.07;88.58
69715;HTU21D;56981;53.532;49.398;2023-05-15T01:31:53;13.14;78.59
69715;HTU21D;56981;53.532;49.398;2023-05-15T01:34:22;13.66;76.73
69715;HTU21D;56981;53.532;49.398;2023-05-15T01:36:55;13.85;74.80
69715;HTU21D;56981;53.532;49.398;2023-05-15T01:39:27;14.28;73.54
69715;HTU21D;56981;53.532;49.398;2023-05-15T01:41:54;14.67;70.81
69715;HTU21D;56981;53.532;49.398;2023-05-15T01:44:27;15.18;69.16
69715;HTU21D;56981;53.532;49.398;2023-05-15T01:46:58;15.61;66.68
69715;HTU21D;56981;53.532;49.398;2023-05-15T01:49:26;16.20;64.17
69715;HTU21D;56981;53.532;49.398;2023-05-15T01:52:05;16.96;61.27
69715;HTU21D;56981;53.532;49.398;2023-05-15T01:54:33;17.39;60.06
69715;HTU21D;56981;53.532;49.398;2023-05-15T01:57:01;17.77;59.52
69715;HTU21D;56981;53.532;49.398;2023-05-15T01:59:28;18.15;57.53
69715;HTU21D;56981;53.532;49.398;2023-05-15T02:01:56;18.57;56.50
69715;HTU21D;56981;53.532;49.398;2023-05-15T02:04:24;18.70;55.30
69715;HTU21D;56981;53.532;49.398;2023-05-15T02:06:51;19.12;54.91
69715;HTU21D;56981;53.532;49.398;2023-05-15T02:09:21;19.42;53.36
69715;HTU21D;56981;53.532;49.398;2023-05-15T02:11:48;19.55;52.91
69715;HTU21D;56981;53.532;49.398;2023-05-15T02:14:15;19.62;52.65
69715;HTU21D;56981;53.532;49.398;2023-05-15T02:16:42;19.40;53.19
69715;HTU21D;56981;53.532;49.398;2023-05-15T02:19:08;19.84;51.77
69715;HTU21D;56981;53.532;49.398;2023-05-15T02:21:34;20.15;51.11
69715;HTU21D;56981;53.532;49.398;2023-05-15T02:24:00;20.65;49.40
69715;HTU21D;56981;53.532;49.398;2023-05-15T02:29:41;20.70;48.72
69715;HTU21D;56981;53.532;49.398;2023-05-15T02:37:29;21.04;47.53
69715;HTU21D;56981;53.532;49.398;2023-05-15T02:39:56;21.15;47.40
69715;HTU21D;56981;53.532;49.398;2023-05-15T02:42:25;21.46;46.64
69715;HTU21D;56981;53.532;49.398;2023-05-15T02:44:54;21.98;45.19
69715;HTU21D;56981;53.532;49.398;2023-05-15T02:47:22;21.66;45.17
69715;HTU21D;56981;53.532;49.398;2023-05-15T02:49:49;21.77;45.62
69715;HTU21D;56981;53.532;49.398;2023-05-15T02:52:15;21.82;44.66
69715;HTU21D;56981;53.532;49.398;2023-05-15T02:54:42;21.84;43.95
69715;HTU21D;56981;53.532;49.398;2023-05-15T02:57:08;22.83;42.07
69715;HTU21D;56981;53.532;49.398;2023-05-15T02:59:34;22.90;42.13
69715;HTU21D;56981;53.532;49.398;2023-05-15T03:02:00;23.17;40.95
69715;HTU21D;56981;53.532;49.398;2023-05-15T03:04:28;23.50;40.34
69715;HTU21D;56981;53.532;49.398;2023-05-15T03:06:54;23.68;40.26
69715;HTU21D;56981;53.532;49.398;2023-05-15T03:09:20;23.35;40.94
69715;HTU21D;56981;53.532;49.398;2023-05-15T03:11:46;23.23;41.03
69715;HTU21D;56981;53.532;49.398;2023-05-15T03:14:12;22.92;41.10
69715;HTU21D;56981;53.532;49.398;2023-05-15T03:16:39;23.01;41.68
69715;HTU21D;56981;53.532;49.398;2023-05-15T03:19:05;23.17;41.00
69715;HTU21D;56981;53.532;49.398;2023-05-15T03:21:31;23.51;40.91
69715;HTU21D;56981;53.532;49.398;2023-05-15T03:23:57;23.61;40.12
69715;HTU21D;56981;53.532;49.398;2023-05-15T03:26:25;24.29;38.10
69715;HTU21D;56981;53.532;49.398;2023-05-15T03:28:52;25.04;37.37
69715;HTU21D;56981;53.532;49.398;2023-05-15T03:31:18;24.63;37.28
69715;HTU21D;56981;53.532;49.398;2023-05-15T03:33:45;23.94;38.68
69715;HTU21D;56981;53.532;49.398;2023-05-15T03:36:14;24.02;38.93
69715;HTU21D;56981;53.532;49.398;2023-05-15T03:38:40;23.66;39.11
69715;HTU21D;56981;53.532;49.398;2023-05-15T03:41:11;23.74;39.12
69715;HTU21D;56981;53.532;49.398;2023-05-15T03:43:37;24.53;37.32
69715;HTU21D;56981;53.532;49.398;2023-05-15T03:46:04;24.27;38.36
69715;HTU21D;56981;53.532;49.398;2023-05-15T03:48:30;24.10;38.22
69715;HTU21D;56981;53.532;49.398;2023-05-15T03:50:56;23.95;38.60
69715;HTU21D;56981;53.532;49.398;2023-05-15T03:53:22;25.19;36.54
69715;HTU21D;56981;53.532;49.398;2023-05-15T03:55:48;25.38;36.32
69715;HTU21D;56981;53.532;49.398;2023-05-15T03:58:15;25.82;34.31
69715;HTU21D;56981;53.532;49.398;2023-05-15T04:00:41;25.73;34.21
69715;HTU21D;56981;53.532;49.398;2023-05-15T04:03:07;25.92;35.53
69715;HTU21D;56981;53.532;49.398;2023-05-15T04:05:33;26.20;33.16
69715;HTU21D;56981;53.532;49.398;2023-05-15T04:07:59;26.52;32.32
69715;HTU21D;56981;53.532;49.398;2023-05-15T04:10:25;26.68;31.86
69715;HTU21D;56981;53.532;49.398;2023-05-15T04:12:51;25.94;33.51
69715;HTU21D;56981;53.532;49.398;2023-05-15T04:17:48;26.05;33.11
69715;HTU21D;56981;53.532;49.398;2023-05-15T04:20:15;25.78;33.64
69715;HTU21D;56981;53.532;49.398;2023-05-15T04:22:43;25.74;34.51
69715;HTU21D;56981;53.532;49.398;2023-05-15T04:25:10;26.20;33.76
69715;HTU21D;56981;53.532;49.398;2023-05-15T04:27:37;25.93;33.31
69715;HTU21D;56981;53.532;49.398;2023-05-15T04:30:04;25.80;33.09
69715;HTU21D;56981;53.532;49.398;2023-05-15T04:32:30;25.31;35.08
69715;HTU21D;56981;53.532;49.398;2023-05-15T04:35:02;25.06;34.43
69715;HTU21D;56981;53.532;49.398;2023-05-15T04:37:41;25.05;34.95
69715;HTU21D;56981;53.532;49.398;2023-05-15T04:40:08;24.78;36.38
69715;HTU21D;56981;53.532;49.398;2023-05-15T04:42:35;25.25;35.25
69715;HTU21D;56981;53.532;49.398;2023-05-15T04:45:02;25.27;34.25
69715;HTU21D;56981;53.532;49.398;2023-05-15T04:47:28;25.24;35.73
69715;HTU21D;56981;53.532;49.398;2023-05-15T04:49:54;25.08;35.23
69715;HTU21D;56981;53.532;49.398;2023-05-15T04:52:20;24.70;36.01
69715;HTU21D;56981;53.532;49.398;2023-05-15T04:54:47;25.13;35.04
69715;HTU21D;56981;53.532;49.398;2023-05-15T04:57:15;25.46;35.22
69715;HTU21D;56981;53.532;49.398;2023-05-15T04:59:42;26.61;31.95
69715;HTU21D;56981;53.532;49.398;2023-05-15T05:02:09;27.51;31.06
69715;HTU21D;56981;53.532;49.398;2023-05-15T05:04:35;27.14;31.87
69715;HTU21D;56981;53.532;49.398;2023-05-15T05:07:01;27.04;31.42
69715;HTU21D;56981;53.532;49.398;2023-05-15T05:09:30;27.20;31.19
69715;HTU21D;56981;53.532;49.398;2023-05-15T05:11:59;27.21;30.26
69715;HTU21D;56981;53.532;49.398;2023-05-15T05:14:26;27.38;30.13
69715;HTU21D;56981;53.532;49.398;2023-05-15T05:16:52;27.84;29.57
69715;HTU21D;56981;53.532;49.398;2023-05-15T05:19:18;27.44;30.05
69715;HTU21D;56981;53.532;49.398;2023-05-15T05:21:44;27.69;30.40
69715;HTU21D;56981;53.532;49.398;2023-05-15T05:24:10;27.72;30.51
69715;HTU21D;56981;53.532;49.398;2023-05-15T05:26:37;27.97;28.74
69715;HTU21D;56981;53.532;49.398;2023-05-15T05:29:03;27.44;31.43
69715;HTU21D;56981;53.532;49.398;2023-05-15T05:31:29;26.71;31.39
69715;HTU21D;56981;53.532;49.398;2023-05-15T05:33:55;26.26;33.00
69715;HTU21D;56981;53.532;49.398;2023-05-15T05:36:21;25.74;33.90
69715;HTU21D;56981;53.532;49.398;2023-05-15T05:38:47;25.66;33.86
69715;HTU21D;56981;53.532;49.398;2023-05-15T05:41:13;26.34;32.14
69715;HTU21D;56981;53.532;49.398;2023-05-15T05:43:39;25.51;34.39
69715;HTU21D;56981;53.532;49.398;2023-05-15T05:46:05;25.30;34.90
69715;HTU21D;56981;53.532;49.398;2023-05-15T05:48:31;24.97;34.37
69715;HTU21D;56981;53.532;49.398;2023-05-15T05:50:57;25.61;33.47
69715;HTU21D;56981;53.532;49.398;2023-05-15T05:53:23;25.63;32.33
69715;HTU21D;56981;53.532;49.398;2023-05-15T05:55:50;26.52;30.82
69715;HTU21D;56981;53.532;49.398;2023-05-15T05:58:16;26.03;30.97
69715;HTU21D;56981;53.532;49.398;2023-05-15T06:00:43;26.39;30.44
69715;HTU21D;56981;53.532;49.398;2023-05-15T06:03:09;25.88;32.51
69715;HTU21D;56981;53.532;49.398;2023-05-15T06:05:36;26.42;31.03
69715;HTU21D;56981;53.532;49.398;2023-05-15T06:08:02;26.99;29.48
69715;HTU21D;56981;53.532;49.398;2023-05-15T06:10:29;25.98;33.31
69715;HTU21D;56981;53.532;49.398;2023-05-15T06:12:56;26.47;31.62
69715;HTU21D;56981;53.532;49.398;2023-05-15T06:15:22;26.03;31.99
69715;HTU21D;56981;53.532;49.398;2023-05-15T06:17:48;24.13;35.09
69715;HTU21D;56981;53.532;49.398;2023-05-15T06:20:14;23.38;38.20
69715;HTU21D;56981;53.532;49.398;2023-05-15T06:22:40;23.20;38.20
69715;HTU21D;56981;53.532;49.398;2023-05-15T06:25:07;22.46;38.03
69715;HTU21D;56981;53.532;49.398;2023-05-15T06:27:36;23.11;37.72
69715;HTU21D;56981;53.532;49.398;2023-05-15T06:30:02;23.14;36.78
69715;HTU21D;56981;53.532;49.398;2023-05-15T06:32:28;22.44;39.23
69715;HTU21D;56981;53.532;49.398;2023-05-15T06:34:55;22.86;37.50
69715;HTU21D;56981;53.532;49.398;2023-05-15T06:37:21;22.25;38.35
69715;HTU21D;56981;53.532;49.398;2023-05-15T06:39:47;22.73;37.99
69715;HTU21D;56981;53.532;49.398;2023-05-15T06:42:13;23.76;36.24
69715;HTU21D;56981;53.532;49.398;2023-05-15T06:44:39;24.01;35.55
69715;HTU21D;56981;53.532;49.398;2023-05-15T06:47:06;24.28;35.56
69715;HTU21D;56981;53.532;49.398;2023-05-15T06:49:32;24.89;35.66
69715;HTU21D;56981;53.532;49.398;2023-05-15T06:51:58;25.06;34.46
69715;HTU21D;56981;53.532;49.398;2023-05-15T06:54:24;25.44;32.56
69715;HTU21D;56981;53.532;49.398;2023-05-15T06:56:50;24.86;33.27
69715;HTU21D;56981;53.532;49.398;2023-05-15T06:59:16;24.01;35.34
69715;HTU21D;56981;53.532;49.398;2023-05-15T07:01:42;23.44;36.59
69715;HTU21D;56981;53.532;49.398;2023-05-15T07:04:09;23.23;37.46
69715;HTU21D;56981;53.532;49.398;2023-05-15T07:06:35;23.26;37.60
69715;HTU21D;56981;53.532;49.398;2023-05-15T07:09:02;23.11;36.59
69715;HTU21D;56981;53.532;49.398;2023-05-15T07:11:29;22.86;37.66
69715;HTU21D;56981;53.532;49.398;2023-05-15T07:13:55;22.47;38.53
69715;HTU21D;56981;53.532;49.398;2023-05-15T07:16:21;22.03;40.22
69715;HTU21D;56981;53.532;49.398;2023-05-15T07:18:47;21.58;40.72
69715;HTU21D;56981;53.532;49.398;2023-05-15T07:21:13;21.03;43.50
69715;HTU21D;56981;53.532;49.398;2023-05-15T07:23:40;20.60;44.21
69715;HTU21D;56981;53.532;49.398;2023-05-15T07:26:06;20.87;44.06
69715;HTU21D;56981;53.532;49.398;2023-05-15T07:28:32;20.92;43.67
69715;HTU21D;56981;53.532;49.398;2023-05-15T07:30:58;20.43;45.71
69715;HTU21D;56981;53.532;49.398;2023-05-15T07:33:24;20.10;46.85
69715;HTU21D;56981;53.532;49.398;2023-05-15T07:35:50;19.71;47.81
69715;HTU21D;56981;53.532;49.398;2023-05-15T07:38:16;19.48;48.81
69715;HTU21D;56981;53.532;49.398;2023-05-15T07:40:43;19.33;48.18
69715;HTU21D;56981;53.532;49.398;2023-05-15T07:43:09;19.41;47.60
69715;HTU21D;56981;53.532;49.398;2023-05-15T07:45:35;19.15;48.32
69715;HTU21D;56981;53.532;49.398;2023-05-15T07:48:12;18.89;49.34
69715;HTU21D;56981;53.532;49.398;2023-05-15T07:50:38;18.69;50.31
69715;HTU21D;56981;53.532;49.398;2023-05-15T07:53:05;18.43;50.24
69715;HTU21D;56981;53.532;49.398;2023-05-15T07:55:31;18.32;50.66
69715;HTU21D;56981;53.532;49.398;2023-05-15T07:57:57;18.25;50.24
69715;HTU21D;56981;53.532;49.398;2023-05-15T08:00:23;18.29;50.88
69715;HTU21D;56981;53.532;49.398;2023-05-15T08:02:49;18.44;51.12
69715;HTU21D;56981;53.532;49.398;2023-05-15T08:05:16;18.64;49.18
69715;HTU21D;56981;53.532;49.398;2023-05-15T08:07:42;18.81;50.45
69715;HTU21D;56981;53.532;49.398;2023-05-15T08:10:08;18.73;48.97
69715;HTU21D;56981;53.532;49.398;2023-05-15T08:12:35;18.81;48.50
69715;HTU21D;56981;53.532;49.398;2023-05-15T08:15:02;18.89;48.08
69715;HTU21D;56981;53.532;49.398;2023-05-15T08:17:28;19.00;48.34
69715;HTU21D;56981;53.532;49.398;2023-05-15T08:19:54;19.09;47.60
69715;HTU21D;56981;53.532;49.398;2023-05-15T08:22:20;19.17;48.34
69715;HTU21D;56981;53.532;49.398;2023-05-15T08:24:46;19.28;48.58
69715;HTU21D;56981;53.532;49.398;2023-05-15T08:27:13;19.15;48.28
69715;HTU21D;56981;53.532;49.398;2023-05-15T08:29:40;19.03;47.35
69715;HTU21D;56981;53.532;49.398;2023-05-15T08:32:08;19.24;47.88
69715;HTU21D;56981;53.532;49.398;2023-05-15T08:34:35;19.18;47.61
69715;HTU21D;56981;53.532;49.398;2023-05-15T08:37:03;20.00;46.31
69715;HTU21D;56981;53.532;49.398;2023-05-15T08:39:29;20.65;43.61
69715;HTU21D;56981;53.532;49.398;2023-05-15T08:44:23;20.87;43.85
69715;HTU21D;56981;53.532;49.398;2023-05-15T08:46:51;20.76;45.06
69715;HTU21D;56981;53.532;49.398;2023-05-15T08:51:47;20.61;43.11
69715;HTU21D;56981;53.532;49.398;2023-05-15T08:54:14;20.54;42.49
69715;HTU21D;56981;53.532;49.398;2023-05-15T08:56:41;20.26;43.00
69715;HTU21D;56981;53.532;49.398;2023-05-15T08:59:08;20.16;43.15
69715;HTU21D;56981;53.532;49.398;2023-05-15T09:01:34;20.30;44.67
69715;HTU21D;56981;53.532;49.398;2023-05-15T09:04:01;20.20;43.14
69715;HTU21D;56981;53.532;49.398;2023-05-15T09:06:27;20.69;44.03
69715;HTU21D;56981;53.532;49.398;2023-05-15T09:08:55;20.68;43.93
69715;HTU21D;56981;53.532;49.398;2023-05-15T09:11:23;20.39;44.15
69715;HTU21D;56981;53.532;49.398;2023-05-15T09:13:49;20.62;43.37
69715;HTU21D;56981;53.532;49.398;2023-05-15T09:16:15;20.21;43.14
69715;HTU21D;56981;53.532;49.398;2023-05-15T09:18:42;20.32;43.63
69715;HTU21D;56981;53.532;49.398;2023-05-15T09:21:25;20.37;44.78
69715;HTU21D;56981;53.532;49.398;2023-05-15T09:24:24;20.02;44.67
69715;HTU21D;56981;53.532;49.398;2023-05-15T09:27:06;19.52;46.30
69715;HTU21D;56981;53.532;49.398;2023-05-15T09:29:38;19.45;46.48
69715;HTU21D;56981;53.532;49.398;2023-05-15T09:32:13;19.51;47.11
69715;HTU21D;56981;53.532;49.398;2023-05-15T09:34:45;19.37;47.49
69715;HTU21D;56981;53.532;49.398;2023-05-15T09:37:30;18.93;48.24
69715;HTU21D;56981;53.532;49.398;2023-05-15T09:40:09;18.71;48.70
69715;HTU21D;56981;53.532;49.398;2023-05-15T09:42:41;18.85;48.31
69715;HTU21D;56981;53.532;49.398;2023-05-15T09:45:18;18.96;48.68
69715;HTU21D;56981;53.532;49.398;2023-05-15T09:47:50;18.86;50.29
69715;HTU21D;56981;53.532;49.398;2023-05-15T09:50:31;18.77;51.37
69715;HTU21D;56981;53.532;49.398;2023-05-15T09:53:03;18.85;50.49
69715;HTU21D;56981;53.532;49.398;2023-05-15T09:55:35;19.11;49.30
69715;HTU21D;56981;53.532;49.398;2023-05-15T09:58:14;19.09;48.92
69715;HTU21D;56981;53.532;49.398;2023-05-15T10:00:46;19.09;49.21
69715;HTU21D;56981;53.532;49.398;2023-05-15T10:03:18;19.14;48.53
69715;HTU21D;56981;53.532;49.398;2023-05-15T10:05:58;19.51;49.09
69715;HTU21D;56981;53.532;49.398;2023-05-15T10:08:30;19.82;48.13
69715;HTU21D;56981;53.532;49.398;2023-05-15T10:11:02;20.07;47.32
69715;HTU21D;56981;53.532;49.398;2023-05-15T10:13:34;19.75;47.13
69715;HTU21D;56981;53.532;49.398;2023-05-15T10:16:07;19.72;49.02
69715;HTU21D;56981;53.532;49.398;2023-05-15T10:18:39;19.39;49.07
69715;HTU21D;56981;53.532;49.398;2023-05-15T10:21:11;19.36;48.93
69715;HTU21D;56981;53.532;49.398;2023-05-15T10:23:43;19.20;49.34
69715;HTU21D;56981;53.532;49.398;2023-05-15T10:26:22;19.24;48.28
69715;HTU21D;56981;53.532;49.398;2023-05-15T10:28:55;19.45;48.70
69715;HTU21D;56981;53.532;49.398;2023-05-15T10:31:28;19.53;48.92
69715;HTU21D;56981;53.532;49.398;2023-05-15T10:34:00;19.62;48.40
69715;HTU21D;56981;53.532;49.398;2023-05-15T10:36:33;19.56;48.35
69715;HTU21D;56981;53.532;49.398;2023-05-15T10:39:06;19.70;47.78
69715;HTU21D;56981;53.532;49.398;2023-05-15T10:41:39;19.62;47.93
69715;HTU21D;56981;53.532;49.398;2023-05-15T10:44:10;19.65;48.62
69715;HTU21D;56981;53.532;49.398;2023-05-15T10:46:42;19.46;47.59
69715;HTU21D;56981;53.532;49.398;2023-05-15T10:49:14;19.17;48.05
69715;HTU21D;56981;53.532;49.398;2023-05-15T10:51:46;18.98;47.19
69715;HTU21D;56981;53.532;49.398;2023-05-15T10:54:17;19.07;47.92
69715;HTU21D;56981;53.532;49.398;2023-05-15T10:56:49;19.27;49.26
69715;HTU21D;56981;53.532;49.398;2023-05-15T10:59:29;19.21;49.21
69715;HTU21D;56981;53.532;49.398;2023-05-15T11:02:23;19.16;48.22
69715;HTU21D;56981;53.532;49.398;2023-05-15T11:04:59;19.09;48.12
69715;HTU21D;56981;53.532;49.398;2023-05-15T11:07:31;19.01;47.57
69715;HTU21D;56981;53.532;49.398;2023-05-15T11:13:01;18.63;48.33
69715;HTU21D;56981;53.532;49.398;2023-05-15T11:15:42;18.80;48.97
69715;HTU21D;56981;53.532;49.398;2023-05-15T11:18:14;18.86;49.82
69715;HTU21D;56981;53.532;49.398;2023-05-15T11:23:22;18.62;49.16
69715;HTU21D;56981;53.532;49.398;2023-05-15T11:25:57;18.78;50.80
69715;HTU21D;56981;53.532;49.398;2023-05-15T11:28:28;18.88;50.66
69715;HTU21D;56981;53.532;49.398;2023-05-15T11:31:05;19.08;49.05
69715;HTU21D;56981;53.532;49.398;2023-05-15T11:33:37;19.21;47.38
69715;HTU21D;56981;53.532;49.398;2023-05-15T11:36:10;19.35;47.58
69715;HTU21D;56981;53.532;49.398;2023-05-15T11:38:42;19.28;47.28
69715;HTU21D;56981;53.532;49.398;2023-05-15T11:41:18;19.06;48.24
69715;HTU21D;56981;53.532;49.398;2023-05-15T11:43:49;18.93;48.28
69715;HTU21D;56981;53.532;49.398;2023-05-15T11:46:21;18.93;49.59
69715;HTU21D;56981;53.532;49.398;2023-05-15T11:48:53;18.76;49.90
69715;HTU21D;56981;53.532;49.398;2023-05-15T11:51:26;18.56;50.47
69715;HTU21D;56981;53.532;49.398;2023-05-15T11:53:57;18.48;52.04
69715;HTU21D;56981;53.532;49.398;2023-05-15T11:56:30;18.40;52.29
69715;HTU21D;56981;53.532;49.398;2023-05-15T11:59:02;18.44;51.59
69715;HTU21D;56981;53.532;49.398;2023-05-15T12:01:43;18.47;51.60
69715;HTU21D;56981;53.532;49.398;2023-05-15T12:04:17;18.47;52.10
69715;HTU21D;56981;53.532;49.398;2023-05-15T12:06:49;18.46;52.09
69715;HTU21D;56981;53.532;49.398;2023-05-15T12:09:20;18.30;51.46
69715;HTU21D;56981;53.532;49.398;2023-05-15T12:11:57;18.42;53.32
69715;HTU21D;56981;53.532;49.398;2023-05-15T12:14:31;18.24;50.58
69715;HTU21D;56981;53.532;49.398;2023-05-15T12:17:03;18.21;51.90
69715;HTU21D;56981;53.532;49.398;2023-05-15T12:19:36;18.27;51.01
69715;HTU21D;56981;53.532;49.398;2023-05-15T12:22:08;18.35;51.49
69715;HTU21D;56981;53.532;49.398;2023-05-15T12:24:40;18.37;51.09
69715;HTU21D;56981;53.532;49.398;2023-05-15T12:27:12;18.50;52.05
69715;HTU21D;56981;53.532;49.398;2023-05-15T12:29:44;18.63;51.91
69715;HTU21D;56981;53.532;49.398;2023-05-15T12:32:15;18.62;51.72
69715;HTU21D;56981;53.532;49.398;2023-05-15T12:34:47;18.67;49.80
69715;HTU21D;56981;53.532;49.398;2023-05-15T12:37:18;18.70;50.28
69715;HTU21D;56981;53.532;49.398;2023-05-15T12:39:55;18.70;48.76
69715;HTU21D;56981;53.532;49.398;2023-05-15T12:42:26;18.69;47.92
69715;HTU21D;56981;53.532;49.398;2023-05-15T12:44:57;18.67;47.89
69715;HTU21D;56981;53.532;49.398;2023-05-15T12:47:29;18.65;48.79
69715;HTU21D;56981;53.532;49.398;2023-05-15T12:50:00;18.64;50.16
69715;HTU21D;56981;53.532;49.398;2023-05-15T12:52:32;18.66;48.82
69715;HTU21D;56981;53.532;49.398;2023-05-15T12:55:04;18.71;49.05
69715;HTU21D;56981;53.532;49.398;2023-05-15T12:57:35;18.61;49.37
69715;HTU21D;56981;53.532;49.398;2023-05-15T13:00:09;18.52;49.87
69715;HTU21D;56981;53.532;49.398;2023-05-15T13:02:44;18.55;50.87
69715;HTU21D;56981;53.532;49.398;2023-05-15T13:05:15;18.51;50.37
69715;HTU21D;56981;53.532;49.398;2023-05-15T13:07:47;18.44;48.53
69715;HTU21D;56981;53.532;49.398;2023-05-15T13:10:23;18.43;49.76
69715;HTU21D;56981;53.532;49.398;2023-05-15T13:12:56;18.47;49.37
69715;HTU21D;56981;53.532;49.398;2023-05-15T13:15:29;18.43;48.89
69715;HTU21D;56981;53.532;49.398;2023-05-15T13:18:09;18.43;49.62
69715;HTU21D;56981;53.532;49.398;2023-05-15T13:20:48;18.50;49.44
69715;HTU21D;56981;53.532;49.398;2023-05-15T13:23:20;18.50;49.96
69715;HTU21D;56981;53.532;49.398;2023-05-15T13:25:54;18.69;51.40
69715;HTU21D;56981;53.532;49.398;2023-05-15T13:28:26;18.80;50.44
69715;HTU21D;56981;53.532;49.398;2023-05-15T13:30:57;18.82;49.62
69715;HTU21D;56981;53.532;49.398;2023-05-15T13:33:28;18.85;50.47
69715;HTU21D;56981;53.532;49.398;2023-05-15T13:35:59;18.77;49.75
69715;HTU21D;56981;53.532;49.398;2023-05-15T13:38:31;18.51;50.23
69715;HTU21D;56981;53.532;49.398;2023-05-15T13:41:05;18.44;51.62
69715;HTU21D;56981;53.532;49.398;2023-05-15T13:43:36;18.37;51.19
69715;HTU21D;56981;53.532;49.398;2023-05-15T13:46:07;18.27;51.29
69715;HTU21D;56981;53.532;49.398;2023-05-15T13:48:39;18.26;50.95
69715;HTU21D;56981;53.532;49.398;2023-05-15T13:51:10;18.13;52.22
69715;HTU21D;56981;53.532;49.398;2023-05-15T13:53:41;18.10;52.27
69715;HTU21D;56981;53.532;49.398;2023-05-15T13:56:12;18.10;51.90
69715;HTU21D;56981;53.532;49.398;2023-05-15T13:58:44;18.18;51.30
69715;HTU21D;56981;53.532;49.398;2023-05-15T14:01:15;18.19;51.87
69715;HTU21D;56981;53.532;49.398;2023-05-15T14:03:46;18.14;51.82
69715;HTU21D;56981;53.532;49.398;2023-05-15T14:06:17;18.09;51.82
69715;HTU21D;56981;53.532;49.398;2023-05-15T14:08:48;18.10;52.05
69715;HTU21D;56981;53.532;49.398;2023-05-15T14:11:20;18.10;51.86
69715;HTU21D;56981;53.532;49.398;2023-05-15T14:13:52;18.05;52.33
69715;HTU21D;56981;53.532;49.398;2023-05-15T14:16:23;18.02;52.71
69715;HTU21D;56981;53.532;49.398;2023-05-15T14:18:55;17.92;52.95
69715;HTU21D;56981;53.532;49.398;2023-05-15T14:21:26;17.92;53.81
69715;HTU21D;56981;53.532;49.398;2023-05-15T14:23:57;17.89;53.47
69715;HTU21D;56981;53.532;49.398;2023-05-15T14:26:29;17.90;53.25
69715;HTU21D;56981;53.532;49.398;2023-05-15T14:29:00;17.88;52.75
69715;HTU21D;56981;53.532;49.398;2023-05-15T14:31:26;17.83;53.35
69715;HTU21D;56981;53.532;49.398;2023-05-15T14:33:52;17.87;52.94
69715;HTU21D;56981;53.532;49.398;2023-05-15T14:36:18;17.76;53.65
69715;HTU21D;56981;53.532;49.398;2023-05-15T14:38:44;17.73;55.02
69715;HTU21D;56981;53.532;49.398;2023-05-15T14:41:13;17.69;54.49
69715;HTU21D;56981;53.532;49.398;2023-05-15T14:43:39;17.64;52.89
69715;HTU21D;56981;53.532;49.398;2023-05-15T14:46:05;17.66;52.50
69715;HTU21D;56981;53.532;49.398;2023-05-15T14:48:31;17.68;52.13
69715;HTU21D;56981;53.532;49.398;2023-05-15T14:50:59;17.69;52.40
69715;HTU21D;56981;53.532;49.398;2023-05-15T14:53:26;17.65;52.28
69715;HTU21D;56981;53.532;49.398;2023-05-15T14:55:53;17.61;52.43
69715;HTU21D;56981;53.532;49.398;2023-05-15T14:58:19;17.59;52.59
69715;HTU21D;56981;53.532;49.398;2023-05-15T15:00:45;17.56;52.43
69715;HTU21D;56981;53.532;49.398;2023-05-15T15:03:13;17.53;52.75
69715;HTU21D;56981;53.532;49.398;2023-05-15T15:05:39;17.55;53.60
69715;HTU21D;56981;53.532;49.398;2023-05-15T15:08:07;17.53;54.01
69715;HTU21D;56981;53.532;49.398;2023-05-15T15:10:35;17.48;54.20
69715;HTU21D;56981;53.532;49.398;2023-05-15T15:13:01;17.46;52.46
69715;HTU21D;56981;53.532;49.398;2023-05-15T15:15:28;17.41;51.54
69715;HTU21D;56981;53.532;49.398;2023-05-15T15:17:55;17.39;52.11
69715;HTU21D;56981;53.532;49.398;2023-05-15T15:20:25;17.37;52.65
69715;HTU21D;56981;53.532;49.398;2023-05-15T15:22:52;17.37;52.36
69715;HTU21D;56981;53.532;49.398;2023-05-15T15:25:24;17.38;53.48
69715;HTU21D;56981;53.532;49.398;2023-05-15T15:27:50;17.33;52.75
69715;HTU21D;56981;53.532;49.398;2023-05-15T15:30:16;17.32;53.47
69715;HTU21D;56981;53.532;49.398;2023-05-15T15:32:43;17.26;54.13
69715;HTU21D;56981;53.532;49.398;2023-05-15T15:35:11;17.20;53.88
69715;HTU21D;56981;53.532;49.398;2023-05-15T15:37:38;17.19;54.42
69715;HTU21D;56981;53.532;49.398;2023-05-15T15:40:05;17.13;54.73
69715;HTU21D;56981;53.532;49.398;2023-05-15T15:42:32;17.10;54.80
69715;HTU21D;56981;53.532;49.398;2023-05-15T15:44:59;17.05;54.95